sensor_id;sensor_type;location;lat;lon;timestamp;P1;durP1;ratioP1;P2;durP2;ratioP2
20454;SDS011;10386;54.314;10.022;2022-07-22T00:01:11;9.07;;;2.43;;
20454;SDS011;10386;54.314;10.022;2022-07-22T00:03:45;7.53;;;2.40;;
20454;SDS011;10386;54.314;10.022;2022-07-22T00:06:14;7.50;;;2.93;;
20454;SDS011;10386;54.314;10.022;2022-07-22T00:08:48;8.47;;;2.40;;
20454;SDS011;10386;54.314;10.022;2022-07-22T00:11:18;12.47;;;3.47;;
20454;SDS011;10386;54.314;10.022;2022-07-22T00:13:49;5.97;;;2.83;;
20454;SDS011;10386;54.314;10.022;2022-07-22T00:16:23;11.37;;;3.03;;
20454;SDS011;10386;54.314;10.022;2022-07-22T00:25:05;11.37;;;3.70;;
20454;SDS011;10386;54.314;10.022;2022-07-22T00:27:36;10.77;;;3.23;;
20454;SDS011;10386;54.314;10.022;2022-07-22T00:30:29;11.60;;;3.50;;
20454;SDS011;10386;54.314;10.022;2022-07-22T00:33:00;11.40;;;3.67;;
20454;SDS011;10386;54.314;10.022;2022-07-22T00:35:31;14.30;;;3.40;;
20454;SDS011;10386;54.314;10.022;2022-07-22T00:38:08;13.47;;;3.73;;
20454;SDS011;10386;54.314;10.022;2022-07-22T00:40:49;9.53;;;2.67;;
20454;SDS011;10386;54.314;10.022;2022-07-22T00:43:25;12.47;;;3.27;;
20454;SDS011;10386;54.314;10.022;2022-07-22T00:46:15;9.30;;;2.90;;
20454;SDS011;10386;54.314;10.022;2022-07-22T00:48:43;11.93;;;3.10;;
20454;SDS011;10386;54.314;10.022;2022-07-22T00:51:13;9.10;;;2.70;;
20454;SDS011;10386;54.314;10.022;2022-07-22T00:54:00;8.73;;;2.80;;
20454;SDS011;10386;54.314;10.022;2022-07-22T01:02:39;8.20;;;2.77;;
20454;SDS011;10386;54.314;10.022;2022-07-22T01:05:09;12.00;;;3.80;;
20454;SDS011;10386;54.314;10.022;2022-07-22T01:07:39;7.03;;;2.73;;
20454;SDS011;10386;54.314;10.022;2022-07-22T01:10:08;7.20;;;2.70;;
20454;SDS011;10386;54.314;10.022;2022-07-22T01:12:36;13.17;;;2.80;;
20454;SDS011;10386;54.314;10.022;2022-07-22T01:15:06;7.20;;;2.70;;
20454;SDS011;10386;54.314;10.022;2022-07-22T01:17:35;5.20;;;2.50;;
20454;SDS011;10386;54.314;10.022;2022-07-22T01:20:04;8.17;;;2.53;;
20454;SDS011;10386;54.314;10.022;2022-07-22T01:22:33;9.77;;;2.73;;
20454;SDS011;10386;54.314;10.022;2022-07-22T01:25:02;17.83;;;2.57;;
20454;SDS011;10386;54.314;10.022;2022-07-22T01:27:31;9.67;;;2.53;;
20454;SDS011;10386;54.314;10.022;2022-07-22T01:29:59;7.13;;;2.40;;
20454;SDS011;10386;54.314;10.022;2022-07-22T01:32:27;6.93;;;2.37;;
20454;SDS011;10386;54.314;10.022;2022-07-22T01:34:55;11.33;;;2.57;;
20454;SDS011;10386;54.314;10.022;2022-07-22T01:37:24;6.17;;;2.23;;
20454;SDS011;10386;54.314;10.022;2022-07-22T01:39:52;6.63;;;2.60;;
20454;SDS011;10386;54.314;10.022;2022-07-22T01:42:24;6.23;;;2.30;;
20454;SDS011;10386;54.314;10.022;2022-07-22T01:45:22;5.93;;;2.10;;
20454;SDS011;10386;54.314;10.022;2022-07-22T01:48:10;4.03;;;2.10;;
20454;SDS011;10386;54.314;10.022;2022-07-22T01:51:16;4.30;;;2.00;;
20454;SDS011;10386;54.314;10.022;2022-07-22T01:54:12;6.97;;;2.30;;
20454;SDS011;10386;54.314;10.022;2022-07-22T01:57:02;7.10;;;2.30;;
20454;SDS011;10386;54.314;10.022;2022-07-22T01:59:54;4.10;;;2.50;;
20454;SDS011;10386;54.314;10.022;2022-07-22T02:42:23;6.03;;;2.57;;
20454;SDS011;10386;54.314;10.022;2022-07-22T02:44:54;4.47;;;2.60;;
20454;SDS011;10386;54.314;10.022;2022-07-22T02:53:42;3.37;;;2.20;;
20454;SDS011;10386;54.314;10.022;2022-07-22T02:56:11;8.37;;;2.50;;
20454;SDS011;10386;54.314;10.022;2022-07-22T02:59:12;4.70;;;2.60;;
20454;SDS011;10386;54.314;10.022;2022-07-22T03:29:19;9.07;;;2.90;;
20454;SDS011;10386;54.314;10.022;2022-07-22T03:41:13;8.53;;;2.77;;
20454;SDS011;10386;54.314;10.022;2022-07-22T03:43:49;12.87;;;3.27;;
20454;SDS011;10386;54.314;10.022;2022-07-22T03:52:32;10.83;;;3.60;;
20454;SDS011;10386;54.314;10.022;2022-07-22T04:22:50;8.87;;;3.63;;
20454;SDS011;10386;54.314;10.022;2022-07-22T04:25:19;13.13;;;3.90;;
20454;SDS011;10386;54.314;10.022;2022-07-22T04:27:48;13.83;;;3.87;;
20454;SDS011;10386;54.314;10.022;2022-07-22T04:30:21;10.87;;;4.00;;
20454;SDS011;10386;54.314;10.022;2022-07-22T04:32:52;12.80;;;3.93;;
20454;SDS011;10386;54.314;10.022;2022-07-22T04:56:16;15.20;;;4.40;;
20454;SDS011;10386;54.314;10.022;2022-07-22T05:01:24;11.67;;;4.00;;
20454;SDS011;10386;54.314;10.022;2022-07-22T05:03:55;16.37;;;4.70;;
20454;SDS011;10386;54.314;10.022;2022-07-22T05:06:24;18.23;;;4.63;;
20454;SDS011;10386;54.314;10.022;2022-07-22T05:08:55;9.53;;;3.47;;
20454;SDS011;10386;54.314;10.022;2022-07-22T05:11:29;12.83;;;3.80;;
20454;SDS011;10386;54.314;10.022;2022-07-22T05:22:40;19.87;;;3.90;;
20454;SDS011;10386;54.314;10.022;2022-07-22T05:25:11;19.10;;;4.47;;
20454;SDS011;10386;54.314;10.022;2022-07-22T05:27:51;17.63;;;4.20;;
20454;SDS011;10386;54.314;10.022;2022-07-22T05:30:21;20.07;;;4.07;;
20454;SDS011;10386;54.314;10.022;2022-07-22T05:32:51;14.93;;;4.17;;
20454;SDS011;10386;54.314;10.022;2022-07-22T05:35:22;12.17;;;4.20;;
20454;SDS011;10386;54.314;10.022;2022-07-22T05:37:50;19.73;;;4.30;;
20454;SDS011;10386;54.314;10.022;2022-07-22T05:40:18;16.80;;;4.50;;
20454;SDS011;10386;54.314;10.022;2022-07-22T05:42:47;25.13;;;5.00;;
20454;SDS011;10386;54.314;10.022;2022-07-22T05:45:17;16.53;;;4.10;;
20454;SDS011;10386;54.314;10.022;2022-07-22T05:47:45;14.07;;;3.80;;
20454;SDS011;10386;54.314;10.022;2022-07-22T05:53:08;18.57;;;4.07;;
20454;SDS011;10386;54.314;10.022;2022-07-22T05:55:36;19.23;;;3.60;;
20454;SDS011;10386;54.314;10.022;2022-07-22T05:58:08;13.07;;;3.63;;
20454;SDS011;10386;54.314;10.022;2022-07-22T06:00:36;16.33;;;3.43;;
20454;SDS011;10386;54.314;10.022;2022-07-22T06:03:06;17.30;;;3.63;;
20454;SDS011;10386;54.314;10.022;2022-07-22T06:05:41;12.80;;;3.70;;
20454;SDS011;10386;54.314;10.022;2022-07-22T06:08:09;16.60;;;3.70;;
20454;SDS011;10386;54.314;10.022;2022-07-22T06:10:37;15.17;;;3.67;;
20454;SDS011;10386;54.314;10.022;2022-07-22T06:13:05;11.47;;;3.83;;
20454;SDS011;10386;54.314;10.022;2022-07-22T06:15:34;17.23;;;3.50;;
20454;SDS011;10386;54.314;10.022;2022-07-22T06:18:02;18.97;;;4.07;;
20454;SDS011;10386;54.314;10.022;2022-07-22T06:20:32;17.03;;;4.07;;
20454;SDS011;10386;54.314;10.022;2022-07-22T06:23:02;16.87;;;4.27;;
20454;SDS011;10386;54.314;10.022;2022-07-22T06:25:31;16.97;;;3.90;;
20454;SDS011;10386;54.314;10.022;2022-07-22T06:28:09;12.17;;;3.90;;
20454;SDS011;10386;54.314;10.022;2022-07-22T06:30:38;14.33;;;3.30;;
20454;SDS011;10386;54.314;10.022;2022-07-22T06:33:07;8.90;;;4.00;;
20454;SDS011;10386;54.314;10.022;2022-07-22T06:35:37;15.23;;;3.97;;
20454;SDS011;10386;54.314;10.022;2022-07-22T06:38:07;14.70;;;3.77;;
20454;SDS011;10386;54.314;10.022;2022-07-22T06:40:52;17.60;;;3.43;;
20454;SDS011;10386;54.314;10.022;2022-07-22T06:43:20;15.63;;;4.00;;
20454;SDS011;10386;54.314;10.022;2022-07-22T06:45:49;16.03;;;3.90;;
20454;SDS011;10386;54.314;10.022;2022-07-22T06:48:18;20.10;;;3.93;;
20454;SDS011;10386;54.314;10.022;2022-07-22T06:50:49;16.73;;;3.33;;
20454;SDS011;10386;54.314;10.022;2022-07-22T06:53:19;17.93;;;4.00;;
20454;SDS011;10386;54.314;10.022;2022-07-22T06:55:48;16.67;;;3.77;;
20454;SDS011;10386;54.314;10.022;2022-07-22T06:58:17;17.63;;;3.47;;
20454;SDS011;10386;54.314;10.022;2022-07-22T07:00:45;18.33;;;3.67;;
20454;SDS011;10386;54.314;10.022;2022-07-22T07:03:14;14.73;;;3.43;;
20454;SDS011;10386;54.314;10.022;2022-07-22T07:06:00;17.17;;;3.57;;
20454;SDS011;10386;54.314;10.022;2022-07-22T07:08:29;20.73;;;3.30;;
20454;SDS011;10386;54.314;10.022;2022-07-22T07:10:58;10.23;;;3.07;;
20454;SDS011;10386;54.314;10.022;2022-07-22T07:13:27;17.10;;;4.43;;
20454;SDS011;10386;54.314;10.022;2022-07-22T07:15:56;21.17;;;3.23;;
20454;SDS011;10386;54.314;10.022;2022-07-22T07:18:25;16.00;;;3.53;;
20454;SDS011;10386;54.314;10.022;2022-07-22T07:20:53;12.23;;;2.90;;
20454;SDS011;10386;54.314;10.022;2022-07-22T07:23:22;14.17;;;2.93;;
20454;SDS011;10386;54.314;10.022;2022-07-22T07:25:50;12.57;;;3.40;;
20454;SDS011;10386;54.314;10.022;2022-07-22T07:28:20;28.93;;;3.93;;
20454;SDS011;10386;54.314;10.022;2022-07-22T07:30:47;12.93;;;3.10;;
20454;SDS011;10386;54.314;10.022;2022-07-22T07:33:17;11.60;;;2.90;;
20454;SDS011;10386;54.314;10.022;2022-07-22T07:35:46;17.70;;;3.63;;
20454;SDS011;10386;54.314;10.022;2022-07-22T07:38:15;10.80;;;2.80;;
20454;SDS011;10386;54.314;10.022;2022-07-22T07:40:47;12.80;;;3.07;;
20454;SDS011;10386;54.314;10.022;2022-07-22T07:43:15;19.00;;;3.43;;
20454;SDS011;10386;54.314;10.022;2022-07-22T07:45:46;20.03;;;4.50;;
20454;SDS011;10386;54.314;10.022;2022-07-22T07:48:15;15.07;;;3.57;;
20454;SDS011;10386;54.314;10.022;2022-07-22T07:50:44;12.93;;;3.30;;
20454;SDS011;10386;54.314;10.022;2022-07-22T07:53:15;12.23;;;2.60;;
20454;SDS011;10386;54.314;10.022;2022-07-22T07:55:45;14.30;;;2.73;;
20454;SDS011;10386;54.314;10.022;2022-07-22T07:58:14;12.70;;;3.10;;
20454;SDS011;10386;54.314;10.022;2022-07-22T08:00:42;14.37;;;3.47;;
20454;SDS011;10386;54.314;10.022;2022-07-22T08:03:12;10.07;;;2.70;;
20454;SDS011;10386;54.314;10.022;2022-07-22T08:05:40;13.87;;;3.57;;
20454;SDS011;10386;54.314;10.022;2022-07-22T08:08:09;14.63;;;2.63;;
20454;SDS011;10386;54.314;10.022;2022-07-22T08:10:41;16.03;;;3.33;;
20454;SDS011;10386;54.314;10.022;2022-07-22T08:13:24;17.23;;;3.43;;
20454;SDS011;10386;54.314;10.022;2022-07-22T08:15:52;19.67;;;2.93;;
20454;SDS011;10386;54.314;10.022;2022-07-22T08:18:19;11.17;;;2.50;;
20454;SDS011;10386;54.314;10.022;2022-07-22T08:20:46;10.47;;;2.43;;
20454;SDS011;10386;54.314;10.022;2022-07-22T08:23:14;11.10;;;2.50;;
20454;SDS011;10386;54.314;10.022;2022-07-22T08:25:46;12.40;;;2.90;;
20454;SDS011;10386;54.314;10.022;2022-07-22T08:28:14;11.27;;;3.03;;
20454;SDS011;10386;54.314;10.022;2022-07-22T08:30:43;13.83;;;2.50;;
20454;SDS011;10386;54.314;10.022;2022-07-22T08:33:11;7.40;;;2.00;;
20454;SDS011;10386;54.314;10.022;2022-07-22T08:35:39;8.03;;;2.53;;
20454;SDS011;10386;54.314;10.022;2022-07-22T08:38:06;8.93;;;2.87;;
20454;SDS011;10386;54.314;10.022;2022-07-22T08:40:33;12.47;;;2.63;;
20454;SDS011;10386;54.314;10.022;2022-07-22T08:43:01;15.27;;;2.13;;
20454;SDS011;10386;54.314;10.022;2022-07-22T08:45:30;15.47;;;2.30;;
20454;SDS011;10386;54.314;10.022;2022-07-22T08:47:58;7.23;;;2.23;;
20454;SDS011;10386;54.314;10.022;2022-07-22T08:50:30;6.10;;;1.63;;
20454;SDS011;10386;54.314;10.022;2022-07-22T08:52:57;9.40;;;2.20;;
20454;SDS011;10386;54.314;10.022;2022-07-22T08:55:25;8.13;;;1.87;;
20454;SDS011;10386;54.314;10.022;2022-07-22T08:57:52;11.13;;;2.60;;
20454;SDS011;10386;54.314;10.022;2022-07-22T09:00:20;6.30;;;2.10;;
20454;SDS011;10386;54.314;10.022;2022-07-22T09:02:49;6.87;;;2.30;;
20454;SDS011;10386;54.314;10.022;2022-07-22T09:05:25;11.40;;;2.07;;
20454;SDS011;10386;54.314;10.022;2022-07-22T09:08:12;11.93;;;2.20;;
20454;SDS011;10386;54.314;10.022;2022-07-22T09:10:48;8.53;;;2.40;;
20454;SDS011;10386;54.314;10.022;2022-07-22T09:13:16;10.27;;;2.13;;
20454;SDS011;10386;54.314;10.022;2022-07-22T09:15:46;6.23;;;1.80;;
20454;SDS011;10386;54.314;10.022;2022-07-22T09:18:16;5.93;;;1.93;;
20454;SDS011;10386;54.314;10.022;2022-07-22T09:20:44;10.17;;;2.10;;
20454;SDS011;10386;54.314;10.022;2022-07-22T09:23:14;11.53;;;2.63;;
20454;SDS011;10386;54.314;10.022;2022-07-22T09:25:44;9.03;;;2.17;;
20454;SDS011;10386;54.314;10.022;2022-07-22T09:28:17;3.97;;;1.80;;
20454;SDS011;10386;54.314;10.022;2022-07-22T09:30:50;7.53;;;1.67;;
20454;SDS011;10386;54.314;10.022;2022-07-22T09:33:24;9.70;;;1.87;;
20454;SDS011;10386;54.314;10.022;2022-07-22T09:35:52;9.20;;;1.83;;
20454;SDS011;10386;54.314;10.022;2022-07-22T09:38:27;6.77;;;1.87;;
20454;SDS011;10386;54.314;10.022;2022-07-22T09:40:56;9.70;;;2.27;;
20454;SDS011;10386;54.314;10.022;2022-07-22T09:43:25;4.73;;;1.90;;
20454;SDS011;10386;54.314;10.022;2022-07-22T09:46:00;11.93;;;2.20;;
20454;SDS011;10386;54.314;10.022;2022-07-22T09:48:28;10.57;;;1.93;;
20454;SDS011;10386;54.314;10.022;2022-07-22T09:50:56;8.13;;;2.27;;
20454;SDS011;10386;54.314;10.022;2022-07-22T09:53:26;9.53;;;2.30;;
20454;SDS011;10386;54.314;10.022;2022-07-22T09:55:58;6.83;;;1.70;;
20454;SDS011;10386;54.314;10.022;2022-07-22T09:58:27;12.30;;;2.30;;
20454;SDS011;10386;54.314;10.022;2022-07-22T10:01:00;8.17;;;2.13;;
20454;SDS011;10386;54.314;10.022;2022-07-22T10:03:33;9.43;;;1.90;;
20454;SDS011;10386;54.314;10.022;2022-07-22T10:06:05;9.63;;;1.90;;
20454;SDS011;10386;54.314;10.022;2022-07-22T10:08:33;7.87;;;1.60;;
20454;SDS011;10386;54.314;10.022;2022-07-22T10:11:02;11.50;;;2.13;;
20454;SDS011;10386;54.314;10.022;2022-07-22T10:13:33;10.00;;;2.33;;
20454;SDS011;10386;54.314;10.022;2022-07-22T10:16:04;13.33;;;2.30;;
20454;SDS011;10386;54.314;10.022;2022-07-22T10:18:33;9.87;;;2.03;;
20454;SDS011;10386;54.314;10.022;2022-07-22T10:21:03;8.23;;;1.63;;
20454;SDS011;10386;54.314;10.022;2022-07-22T10:23:34;10.40;;;1.90;;
20454;SDS011;10386;54.314;10.022;2022-07-22T10:26:03;7.93;;;1.40;;
20454;SDS011;10386;54.314;10.022;2022-07-22T10:28:32;5.37;;;1.80;;
20454;SDS011;10386;54.314;10.022;2022-07-22T10:31:22;6.90;;;1.70;;
20454;SDS011;10386;54.314;10.022;2022-07-22T10:33:52;8.13;;;1.97;;
20454;SDS011;10386;54.314;10.022;2022-07-22T10:36:31;8.10;;;1.67;;
20454;SDS011;10386;54.314;10.022;2022-07-22T10:39:10;9.27;;;2.17;;
20454;SDS011;10386;54.314;10.022;2022-07-22T10:41:40;11.53;;;1.70;;
20454;SDS011;10386;54.314;10.022;2022-07-22T10:44:46;8.83;;;1.90;;
20454;SDS011;10386;54.314;10.022;2022-07-22T10:53:08;6.53;;;1.67;;
20454;SDS011;10386;54.314;10.022;2022-07-22T10:58:49;9.60;;;2.10;;
20454;SDS011;10386;54.314;10.022;2022-07-22T11:07:12;10.40;;;1.80;;
20454;SDS011;10386;54.314;10.022;2022-07-22T11:09:45;4.63;;;1.65;;
20454;SDS011;10386;54.314;10.022;2022-07-22T11:12:42;6.50;;;1.40;;
20454;SDS011;10386;54.314;10.022;2022-07-22T11:15:10;9.00;;;1.63;;
20454;SDS011;10386;54.314;10.022;2022-07-22T11:17:44;6.18;;;1.38;;
20454;SDS011;10386;54.314;10.022;2022-07-22T11:20:17;11.18;;;2.08;;
20454;SDS011;10386;54.314;10.022;2022-07-22T11:22:46;3.92;;;1.50;;
20454;SDS011;10386;54.314;10.022;2022-07-22T11:25:18;10.27;;;1.90;;
20454;SDS011;10386;54.314;10.022;2022-07-22T11:27:55;5.57;;;1.87;;
20454;SDS011;10386;54.314;10.022;2022-07-22T11:30:24;8.85;;;1.67;;
20454;SDS011;10386;54.314;10.022;2022-07-22T11:32:51;7.93;;;1.50;;
20454;SDS011;10386;54.314;10.022;2022-07-22T11:35:26;6.85;;;1.90;;
20454;SDS011;10386;54.314;10.022;2022-07-22T11:38:12;9.23;;;1.80;;
20454;SDS011;10386;54.314;10.022;2022-07-22T11:46:38;6.82;;;1.65;;
20454;SDS011;10386;54.314;10.022;2022-07-22T11:49:17;3.92;;;1.50;;
20454;SDS011;10386;54.314;10.022;2022-07-22T11:51:47;6.40;;;1.67;;
20454;SDS011;10386;54.314;10.022;2022-07-22T11:54:15;5.53;;;1.52;;
20454;SDS011;10386;54.314;10.022;2022-07-22T11:56:41;6.47;;;1.65;;
20454;SDS011;10386;54.314;10.022;2022-07-22T11:59:14;5.38;;;1.60;;
20454;SDS011;10386;54.314;10.022;2022-07-22T12:01:46;3.35;;;1.55;;
20454;SDS011;10386;54.314;10.022;2022-07-22T12:04:14;11.38;;;1.90;;
20454;SDS011;10386;54.314;10.022;2022-07-22T12:06:52;5.38;;;1.70;;
20454;SDS011;10386;54.314;10.022;2022-07-22T12:13:12;4.45;;;1.50;;
20454;SDS011;10386;54.314;10.022;2022-07-22T12:19:00;6.25;;;1.80;;
20454;SDS011;10386;54.314;10.022;2022-07-22T12:22:11;5.50;;;1.50;;
20454;SDS011;10386;54.314;10.022;2022-07-22T12:24:59;10.27;;;2.15;;
20454;SDS011;10386;54.314;10.022;2022-07-22T12:27:31;5.32;;;1.55;;
20454;SDS011;10386;54.314;10.022;2022-07-22T12:30:12;4.85;;;1.58;;
20454;SDS011;10386;54.314;10.022;2022-07-22T12:32:49;6.60;;;1.70;;
20454;SDS011;10386;54.314;10.022;2022-07-22T12:36:07;4.57;;;1.23;;
20454;SDS011;10386;54.314;10.022;2022-07-22T12:38:41;3.78;;;1.40;;
20454;SDS011;10386;54.314;10.022;2022-07-22T12:41:44;6.32;;;1.98;;
20454;SDS011;10386;54.314;10.022;2022-07-22T12:44:31;3.78;;;1.10;;
20454;SDS011;10386;54.314;10.022;2022-07-22T12:47:06;5.25;;;1.23;;
20454;SDS011;10386;54.314;10.022;2022-07-22T12:49:43;4.90;;;1.40;;
20454;SDS011;10386;54.314;10.022;2022-07-22T12:55:30;5.88;;;1.33;;
20454;SDS011;10386;54.314;10.022;2022-07-22T12:58:17;5.72;;;1.40;;
20454;SDS011;10386;54.314;10.022;2022-07-22T13:00:57;5.50;;;1.92;;
20454;SDS011;10386;54.314;10.022;2022-07-22T13:03:40;2.72;;;1.17;;
20454;SDS011;10386;54.314;10.022;2022-07-22T13:06:25;6.10;;;1.80;;
20454;SDS011;10386;54.314;10.022;2022-07-22T13:14:54;7.93;;;1.63;;
20454;SDS011;10386;54.314;10.022;2022-07-22T13:17:26;5.95;;;1.60;;
20454;SDS011;10386;54.314;10.022;2022-07-22T13:20:14;9.40;;;1.98;;
20454;SDS011;10386;54.314;10.022;2022-07-22T13:22:54;6.80;;;1.80;;
20454;SDS011;10386;54.314;10.022;2022-07-22T13:28:45;7.40;;;1.67;;
20454;SDS011;10386;54.314;10.022;2022-07-22T13:37:45;3.00;;;1.20;;
20454;SDS011;10386;54.314;10.022;2022-07-22T13:40:22;6.68;;;1.30;;
20454;SDS011;10386;54.314;10.022;2022-07-22T13:46:13;8.30;;;1.17;;
20454;SDS011;10386;54.314;10.022;2022-07-22T14:03:48;8.05;;;2.13;;
20454;SDS011;10386;54.314;10.022;2022-07-22T14:06:31;6.38;;;1.33;;
20454;SDS011;10386;54.314;10.022;2022-07-22T14:09:18;7.38;;;1.40;;
20454;SDS011;10386;54.314;10.022;2022-07-22T14:12:18;5.20;;;1.40;;
20454;SDS011;10386;54.314;10.022;2022-07-22T14:15:16;7.10;;;2.30;;
20454;SDS011;10386;54.314;10.022;2022-07-22T14:17:56;4.88;;;1.30;;
20454;SDS011;10386;54.314;10.022;2022-07-22T14:20:35;4.65;;;1.45;;
20454;SDS011;10386;54.314;10.022;2022-07-22T14:23:34;6.15;;;1.58;;
20454;SDS011;10386;54.314;10.022;2022-07-22T14:26:13;9.63;;;1.70;;
20454;SDS011;10386;54.314;10.022;2022-07-22T14:29:00;8.75;;;1.70;;
20454;SDS011;10386;54.314;10.022;2022-07-22T14:34:51;10.03;;;1.80;;
20454;SDS011;10386;54.314;10.022;2022-07-22T14:37:49;4.30;;;1.40;;
20454;SDS011;10386;54.314;10.022;2022-07-22T14:40:53;3.43;;;1.37;;
20454;SDS011;10386;54.314;10.022;2022-07-22T14:43:21;4.90;;;1.67;;
20454;SDS011;10386;54.314;10.022;2022-07-22T14:46:04;5.37;;;1.57;;
20454;SDS011;10386;54.314;10.022;2022-07-22T14:48:48;14.60;;;1.83;;
20454;SDS011;10386;54.314;10.022;2022-07-22T14:51:22;4.73;;;1.43;;
20454;SDS011;10386;54.314;10.022;2022-07-22T15:17:04;8.65;;;1.42;;
20454;SDS011;10386;54.314;10.022;2022-07-22T15:19:57;4.37;;;1.60;;
20454;SDS011;10386;54.314;10.022;2022-07-22T15:22:27;4.03;;;1.50;;
20454;SDS011;10386;54.314;10.022;2022-07-22T15:25:00;7.10;;;1.70;;
20454;SDS011;10386;54.314;10.022;2022-07-22T15:27:31;2.67;;;1.40;;
20454;SDS011;10386;54.314;10.022;2022-07-22T15:30:08;3.97;;;1.03;;
20454;SDS011;10386;54.314;10.022;2022-07-22T15:32:42;3.77;;;1.20;;
20454;SDS011;10386;54.314;10.022;2022-07-22T15:41:19;3.77;;;1.23;;
20454;SDS011;10386;54.314;10.022;2022-07-22T15:43:53;3.73;;;1.30;;
20454;SDS011;10386;54.314;10.022;2022-07-22T15:46:47;1.63;;;1.10;;
20454;SDS011;10386;54.314;10.022;2022-07-22T15:49:28;3.40;;;1.40;;
20454;SDS011;10386;54.314;10.022;2022-07-22T15:52:04;3.50;;;1.37;;
20454;SDS011;10386;54.314;10.022;2022-07-22T15:54:42;5.40;;;1.33;;
20454;SDS011;10386;54.314;10.022;2022-07-22T15:57:40;3.13;;;1.33;;
20454;SDS011;10386;54.314;10.022;2022-07-22T16:00:32;7.17;;;1.63;;
20454;SDS011;10386;54.314;10.022;2022-07-22T16:03:16;6.00;;;1.50;;
20454;SDS011;10386;54.314;10.022;2022-07-22T16:06:31;6.67;;;1.57;;
20454;SDS011;10386;54.314;10.022;2022-07-22T16:09:36;4.57;;;1.60;;
20454;SDS011;10386;54.314;10.022;2022-07-22T16:20:53;2.90;;;1.33;;
20454;SDS011;10386;54.314;10.022;2022-07-22T16:26:36;9.23;;;1.60;;
20454;SDS011;10386;54.314;10.022;2022-07-22T16:29:08;3.43;;;1.40;;
20454;SDS011;10386;54.314;10.022;2022-07-22T16:32:05;4.20;;;1.33;;
20454;SDS011;10386;54.314;10.022;2022-07-22T16:37:47;3.80;;;1.20;;
20454;SDS011;10386;54.314;10.022;2022-07-22T16:40:15;1.50;;;1.40;;
20454;SDS011;10386;54.314;10.022;2022-07-22T16:42:42;2.97;;;1.70;;
20454;SDS011;10386;54.314;10.022;2022-07-22T16:45:10;1.93;;;1.37;;
20454;SDS011;10386;54.314;10.022;2022-07-22T16:47:38;2.50;;;1.67;;
20454;SDS011;10386;54.314;10.022;2022-07-22T16:50:06;5.23;;;1.57;;
20454;SDS011;10386;54.314;10.022;2022-07-22T16:52:33;4.70;;;1.50;;
20454;SDS011;10386;54.314;10.022;2022-07-22T16:55:01;6.30;;;1.40;;
20454;SDS011;10386;54.314;10.022;2022-07-22T16:57:28;4.30;;;1.30;;
20454;SDS011;10386;54.314;10.022;2022-07-22T16:59:55;4.93;;;1.50;;
20454;SDS011;10386;54.314;10.022;2022-07-22T17:02:23;1.43;;;1.00;;
20454;SDS011;10386;54.314;10.022;2022-07-22T17:04:49;5.77;;;1.20;;
20454;SDS011;10386;54.314;10.022;2022-07-22T17:07:16;2.43;;;1.20;;
20454;SDS011;10386;54.314;10.022;2022-07-22T17:09:43;2.90;;;1.43;;
20454;SDS011;10386;54.314;10.022;2022-07-22T17:12:10;3.37;;;1.40;;
20454;SDS011;10386;54.314;10.022;2022-07-22T17:14:37;2.90;;;1.20;;
20454;SDS011;10386;54.314;10.022;2022-07-22T17:17:04;6.90;;;1.40;;
20454;SDS011;10386;54.314;10.022;2022-07-22T17:19:30;2.47;;;1.20;;
20454;SDS011;10386;54.314;10.022;2022-07-22T17:21:57;4.37;;;1.53;;
20454;SDS011;10386;54.314;10.022;2022-07-22T17:24:24;10.37;;;1.60;;
20454;SDS011;10386;54.314;10.022;2022-07-22T17:26:51;5.00;;;1.30;;
20454;SDS011;10386;54.314;10.022;2022-07-22T17:29:18;2.17;;;1.40;;
20454;SDS011;10386;54.314;10.022;2022-07-22T17:31:45;4.23;;;1.50;;
20454;SDS011;10386;54.314;10.022;2022-07-22T17:34:12;1.57;;;1.47;;
20454;SDS011;10386;54.314;10.022;2022-07-22T17:36:39;3.97;;;1.27;;
20454;SDS011;10386;54.314;10.022;2022-07-22T17:39:07;3.73;;;1.43;;
20454;SDS011;10386;54.314;10.022;2022-07-22T17:41:40;2.47;;;1.30;;
20454;SDS011;10386;54.314;10.022;2022-07-22T17:44:07;2.57;;;1.47;;
20454;SDS011;10386;54.314;10.022;2022-07-22T17:46:34;4.87;;;1.40;;
20454;SDS011;10386;54.314;10.022;2022-07-22T17:49:01;6.83;;;1.80;;
20454;SDS011;10386;54.314;10.022;2022-07-22T17:51:29;2.70;;;1.33;;
20454;SDS011;10386;54.314;10.022;2022-07-22T17:53:56;6.97;;;1.40;;
20454;SDS011;10386;54.314;10.022;2022-07-22T17:56:23;3.40;;;1.30;;
20454;SDS011;10386;54.314;10.022;2022-07-22T17:58:57;4.50;;;1.37;;
20454;SDS011;10386;54.314;10.022;2022-07-22T18:01:33;5.03;;;1.67;;
20454;SDS011;10386;54.314;10.022;2022-07-22T18:04:00;3.93;;;1.60;;
20454;SDS011;10386;54.314;10.022;2022-07-22T18:06:27;2.33;;;1.33;;
20454;SDS011;10386;54.314;10.022;2022-07-22T18:08:56;3.90;;;1.47;;
20454;SDS011;10386;54.314;10.022;2022-07-22T18:11:23;3.43;;;1.20;;
20454;SDS011;10386;54.314;10.022;2022-07-22T18:13:53;3.57;;;1.50;;
20454;SDS011;10386;54.314;10.022;2022-07-22T18:16:20;2.00;;;1.60;;
20454;SDS011;10386;54.314;10.022;2022-07-22T18:18:47;3.93;;;1.47;;
20454;SDS011;10386;54.314;10.022;2022-07-22T18:21:14;2.10;;;1.40;;
20454;SDS011;10386;54.314;10.022;2022-07-22T18:23:42;3.50;;;1.43;;
20454;SDS011;10386;54.314;10.022;2022-07-22T18:26:09;5.07;;;1.50;;
20454;SDS011;10386;54.314;10.022;2022-07-22T18:28:37;6.60;;;1.57;;
20454;SDS011;10386;54.314;10.022;2022-07-22T18:31:07;4.00;;;1.57;;
20454;SDS011;10386;54.314;10.022;2022-07-22T18:33:35;4.50;;;1.53;;
20454;SDS011;10386;54.314;10.022;2022-07-22T18:36:04;5.37;;;1.60;;
20454;SDS011;10386;54.314;10.022;2022-07-22T18:38:31;3.77;;;1.57;;
20454;SDS011;10386;54.314;10.022;2022-07-22T18:40:59;6.10;;;1.60;;
20454;SDS011;10386;54.314;10.022;2022-07-22T18:43:26;4.63;;;1.67;;
20454;SDS011;10386;54.314;10.022;2022-07-22T18:45:53;3.63;;;1.70;;
20454;SDS011;10386;54.314;10.022;2022-07-22T18:48:20;3.50;;;1.53;;
20454;SDS011;10386;54.314;10.022;2022-07-22T18:50:47;5.50;;;1.70;;
20454;SDS011;10386;54.314;10.022;2022-07-22T18:53:15;5.40;;;1.67;;
20454;SDS011;10386;54.314;10.022;2022-07-22T18:55:42;6.23;;;1.80;;
20454;SDS011;10386;54.314;10.022;2022-07-22T18:58:09;5.00;;;1.53;;
20454;SDS011;10386;54.314;10.022;2022-07-22T19:00:36;3.37;;;1.50;;
20454;SDS011;10386;54.314;10.022;2022-07-22T19:03:03;6.37;;;1.70;;
20454;SDS011;10386;54.314;10.022;2022-07-22T19:05:31;2.93;;;1.37;;
20454;SDS011;10386;54.314;10.022;2022-07-22T19:07:58;7.23;;;2.13;;
20454;SDS011;10386;54.314;10.022;2022-07-22T19:10:26;2.30;;;1.30;;
20454;SDS011;10386;54.314;10.022;2022-07-22T19:12:52;5.03;;;1.37;;
20454;SDS011;10386;54.314;10.022;2022-07-22T19:15:19;3.60;;;1.20;;
20454;SDS011;10386;54.314;10.022;2022-07-22T19:17:46;1.30;;;1.20;;
20454;SDS011;10386;54.314;10.022;2022-07-22T19:20:14;2.87;;;1.70;;
20454;SDS011;10386;54.314;10.022;2022-07-22T19:22:41;6.20;;;1.33;;
20454;SDS011;10386;54.314;10.022;2022-07-22T19:25:08;3.50;;;1.40;;
20454;SDS011;10386;54.314;10.022;2022-07-22T19:27:35;6.90;;;1.73;;
20454;SDS011;10386;54.314;10.022;2022-07-22T19:30:02;1.80;;;1.30;;
20454;SDS011;10386;54.314;10.022;2022-07-22T19:32:29;2.27;;;1.53;;
20454;SDS011;10386;54.314;10.022;2022-07-22T19:34:56;3.63;;;1.53;;
20454;SDS011;10386;54.314;10.022;2022-07-22T19:37:29;2.60;;;1.70;;
20454;SDS011;10386;54.314;10.022;2022-07-22T19:39:59;5.80;;;1.70;;
20454;SDS011;10386;54.314;10.022;2022-07-22T19:42:26;6.60;;;1.80;;